createdAt,value
2023-10-10T00:01:28.386Z,99319.60
2023-10-10T00:03:55.016Z,99314.20
2023-10-10T00:06:22.852Z,99321.20
2023-10-10T00:08:51.193Z,99318.20
2023-10-10T00:11:19.421Z,99317.60
2023-10-10T00:13:47.563Z,99315.40
2023-10-10T00:16:35.410Z,99313.80
2023-10-10T00:19:23.204Z,99309.00
2023-10-10T00:21:52.713Z,99303.80
2023-10-10T00:24:32.835Z,99304.80
2023-10-10T00:27:13.645Z,99297.80
2023-10-10T00:29:43.453Z,99292.80
2023-10-10T00:32:17.806Z,99294.20
2023-10-10T00:34:49.042Z,99289.80
2023-10-10T00:37:21.289Z,99292.00
2023-10-10T00:39:54.434Z,99289.40
2023-10-10T00:42:37.039Z,99290.60
2023-10-10T00:45:09.867Z,99293.80
2023-10-10T00:47:48.335Z,99293.80
2023-10-10T00:50:25.189Z,99289.80
2023-10-10T00:52:56.138Z,99286.80
2023-10-10T00:55:25.468Z,99277.00
2023-10-10T00:57:57.267Z,99269.20
2023-10-10T01:00:30.430Z,99269.40
2023-10-10T01:03:14.689Z,99271.40
2023-10-10T01:05:52.733Z,99269.40
2023-10-10T01:08:20.732Z,99269.20
2023-10-10T01:10:49.584Z,99270.80
2023-10-10T01:13:17.802Z,99274.00
2023-10-10T01:15:44.298Z,99275.20
2023-10-10T01:18:18.222Z,99277.80
2023-10-10T01:20:49.491Z,99271.00
2023-10-10T01:23:18.966Z,99272.40
2023-10-10T01:25:48.567Z,99270.80
2023-10-10T01:28:23.684Z,99274.00
2023-10-10T01:30:59.786Z,99275.20
2023-10-10T01:33:38.322Z,99275.00
2023-10-10T01:36:13.406Z,99273.80
2023-10-10T01:38:42.283Z,99272.60
2023-10-10T01:41:31.659Z,99273.40
2023-10-10T01:44:12.229Z,99270.40
2023-10-10T01:46:42.253Z,99276.00
2023-10-10T01:49:14.074Z,99282.20
2023-10-10T01:51:43.297Z,99284.60
2023-10-10T01:54:19.270Z,99281.60
2023-10-10T01:56:46.622Z,99278.80
2023-10-10T01:59:26.303Z,99274.40
2023-10-10T02:01:54.643Z,99277.00
2023-10-10T02:04:36.051Z,99274.00
2023-10-10T02:07:13.837Z,99273.80
2023-10-10T02:09:40.799Z,99269.20
2023-10-10T02:12:16.761Z,99266.20
2023-10-10T02:14:43.699Z,99273.00
2023-10-10T02:17:23.199Z,99267.60
2023-10-10T02:20:19.981Z,99267.00
2023-10-10T02:22:51.892Z,99271.80
2023-10-10T02:25:24.683Z,99273.00
2023-10-10T02:28:00.605Z,99273.60
2023-10-10T02:30:37.281Z,99281.80
2023-10-10T02:33:17.709Z,99284.80
2023-10-10T02:35:57.123Z,99287.00
2023-10-10T02:38:39.787Z,99287.00
2023-10-10T02:41:26.427Z,99280.40
2023-10-10T02:43:58.280Z,99277.60
2023-10-10T02:46:49.165Z,99273.60
2023-10-10T02:49:30.306Z,99266.80
2023-10-10T02:51:57.628Z,99260.00
2023-10-10T02:54:27.495Z,99256.20
2023-10-10T02:57:19.955Z,99256.20
2023-10-10T02:59:51.144Z,99257.40
2023-10-10T03:02:20.181Z,99272.20
2023-10-10T03:05:14.325Z,99277.00
2023-10-10T03:07:42.605Z,99276.60
2023-10-10T03:10:14.676Z,99272.40
2023-10-10T03:12:42.135Z,99280.20
2023-10-10T03:15:29.586Z,99280.60
2023-10-10T03:17:56.398Z,99283.20
2023-10-10T03:20:35.069Z,99285.60
2023-10-10T03:23:13.767Z,99286.40
2023-10-10T03:25:48.278Z,99287.20
2023-10-10T03:28:29.582Z,99284.80
2023-10-10T03:31:09.272Z,99277.80
2023-10-10T03:33:43.489Z,99276.20
2023-10-10T03:36:18.463Z,99277.40
2023-10-10T03:38:50.130Z,99275.60
2023-10-10T03:41:23.991Z,99282.80
2023-10-10T03:44:10.714Z,99285.60
2023-10-10T03:46:49.701Z,99283.40
2023-10-10T03:49:35.628Z,99288.00
2023-10-10T03:52:21.156Z,99284.20
2023-10-10T03:55:06.336Z,99282.00
2023-10-10T03:57:51.543Z,99289.60
2023-10-10T04:00:36.641Z,99288.20
2023-10-10T04:03:21.916Z,99285.40
2023-10-10T04:06:07.458Z,99280.40
2023-10-10T04:08:53.298Z,99286.20
2023-10-10T04:11:38.401Z,99287.60
2023-10-10T04:14:24.002Z,99288.80
2023-10-10T04:17:09.008Z,99284.80
2023-10-10T04:20:13.996Z,99283.80
2023-10-10T04:22:59.535Z,99292.20
2023-10-10T04:25:44.582Z,99295.80
2023-10-10T04:28:29.240Z,99299.40
2023-10-10T04:31:15.017Z,99305.40
2023-10-10T04:33:59.953Z,99315.80
2023-10-10T04:36:44.958Z,99314.20
2023-10-10T04:39:29.897Z,99321.00
2023-10-10T04:42:15.126Z,99321.40
2023-10-10T04:44:59.872Z,99323.00
2023-10-10T04:47:44.818Z,99323.00
2023-10-10T04:50:29.833Z,99319.80
2023-10-10T04:53:14.575Z,99320.80
2023-10-10T04:55:59.536Z,99317.40
2023-10-10T04:58:44.469Z,99317.60
2023-10-10T05:01:29.564Z,99316.60
2023-10-10T05:04:14.320Z,99305.40
2023-10-10T05:06:59.343Z,99300.40
2023-10-10T05:09:43.983Z,99300.60
2023-10-10T05:12:29.082Z,99299.00
2023-10-10T05:15:14.032Z,99304.00
2023-10-10T05:17:58.847Z,99301.40
2023-10-10T05:20:44.294Z,99308.60
2023-10-10T05:23:29.240Z,99315.80
2023-10-10T05:25:55.673Z,99321.80
2023-10-10T05:28:23.697Z,99321.60
2023-10-10T05:30:56.097Z,99323.60
2023-10-10T05:36:08.046Z,99319.20
2023-10-10T05:38:41.886Z,99315.20
2023-10-10T05:41:15.215Z,99322.00
2023-10-10T05:43:50.940Z,99324.00
2023-10-10T05:46:24.370Z,99323.60
2023-10-10T05:48:57.702Z,99324.60
2023-10-10T05:51:31.429Z,99325.20
2023-10-10T05:54:04.973Z,99330.40
2023-10-10T05:56:38.758Z,99330.60
2023-10-10T05:59:12.081Z,99327.20
2023-10-10T06:01:45.240Z,99320.60
2023-10-10T06:04:18.598Z,99318.20
2023-10-10T06:06:53.516Z,99314.00
2023-10-10T06:09:28.268Z,99310.00
2023-10-10T06:12:05.716Z,99322.20
2023-10-10T06:14:39.087Z,99331.60
2023-10-10T06:17:13.355Z,99340.80
2023-10-10T06:19:47.986Z,99338.00
2023-10-10T06:22:23.375Z,99339.60
2023-10-10T06:24:59.276Z,99344.60
2023-10-10T06:27:38.020Z,99341.60
2023-10-10T06:30:18.950Z,99342.00
2023-10-10T06:32:52.426Z,99342.00
2023-10-10T06:35:30.628Z,99344.80
2023-10-10T06:38:04.419Z,99335.40
2023-10-10T06:40:43.458Z,99339.40
2023-10-10T06:43:16.804Z,99342.00
2023-10-10T06:45:56.318Z,99344.40
2023-10-10T06:48:42.028Z,99347.00
2023-10-10T06:51:16.904Z,99359.20
2023-10-10T06:53:56.031Z,99367.00
2023-10-10T06:56:43.387Z,99355.20
2023-10-10T06:59:17.866Z,99357.80
2023-10-10T07:01:51.363Z,99356.40
2023-10-10T07:04:24.750Z,99352.80
2023-10-10T07:07:02.402Z,99353.40
2023-10-10T07:09:37.807Z,99353.80
2023-10-10T07:12:15.265Z,99356.00
2023-10-10T07:14:49.051Z,99362.20
2023-10-10T07:17:28.331Z,99367.20
2023-10-10T07:20:19.437Z,99369.40
2023-10-10T07:22:55.335Z,99367.80
2023-10-10T07:25:33.452Z,99368.20
2023-10-10T07:28:07.640Z,99374.60
2023-10-10T07:30:48.545Z,99381.20
2023-10-10T07:33:30.527Z,99381.20
2023-10-10T07:36:07.030Z,99379.40
2023-10-10T07:38:40.663Z,99382.40
2023-10-10T07:41:22.420Z,99375.00
2023-10-10T07:43:59.643Z,99383.40
2023-10-10T07:46:37.202Z,99376.20
2023-10-10T07:49:10.527Z,99380.20
2023-10-10T07:51:51.211Z,99379.40
2023-10-10T07:54:40.311Z,99384.80
2023-10-10T07:57:18.908Z,99383.60
2023-10-10T07:59:56.317Z,99384.00
2023-10-10T08:02:34.151Z,99381.60
2023-10-10T08:05:11.955Z,99380.20
2023-10-10T08:07:47.015Z,99378.40
2023-10-10T08:10:32.081Z,99377.00
2023-10-10T08:13:11.288Z,99379.40
2023-10-10T08:15:57.635Z,99374.40
2023-10-10T08:18:54.005Z,99374.40
2023-10-10T08:21:27.355Z,99379.20
2023-10-10T08:24:01.019Z,99388.00
2023-10-10T08:26:40.413Z,99390.60
2023-10-10T08:29:16.459Z,99391.80
2023-10-10T08:31:49.511Z,99387.80
2023-10-10T08:34:25.250Z,99381.60
2023-10-10T08:37:05.005Z,99379.60
2023-10-10T08:39:40.626Z,99382.00
2023-10-10T08:42:16.014Z,99391.60
2023-10-10T08:44:56.744Z,99387.20
2023-10-10T08:47:34.397Z,99384.00
2023-10-10T08:50:10.894Z,99384.80
2023-10-10T08:52:44.855Z,99387.80
2023-10-10T08:55:27.278Z,99383.20
2023-10-10T08:58:01.094Z,99382.80
2023-10-10T09:00:35.210Z,99382.60
2023-10-10T09:03:10.412Z,99386.00
2023-10-10T09:05:43.923Z,99386.00
2023-10-10T09:08:17.583Z,99390.80
2023-10-10T09:10:54.533Z,99386.00
2023-10-10T09:13:28.879Z,99385.00
2023-10-10T09:16:02.848Z,99392.00
2023-10-10T09:18:37.656Z,99385.40
2023-10-10T09:21:20.409Z,99384.40
2023-10-10T09:24:09.192Z,99386.60
2023-10-10T09:26:44.009Z,99389.60
2023-10-10T09:29:35.668Z,99388.80
2023-10-10T09:32:09.252Z,99392.40
2023-10-10T09:34:43.040Z,99394.00
2023-10-10T09:37:28.841Z,99400.00
2023-10-10T09:40:16.782Z,99402.60
2023-10-10T09:43:05.032Z,99400.60
2023-10-10T09:46:00.136Z,99400.20
2023-10-10T09:49:08.471Z,99402.60
2023-10-10T09:52:01.097Z,99418.80
2023-10-10T09:54:36.496Z,99412.60
2023-10-10T09:57:11.119Z,99412.40
2023-10-10T09:59:45.143Z,99412.80
2023-10-10T10:02:39.499Z,99417.00
2023-10-10T10:05:18.496Z,99410.80
2023-10-10T10:08:08.134Z,99412.80
2023-10-10T10:10:53.716Z,99408.80
2023-10-10T10:13:41.686Z,99409.00
2023-10-10T10:16:38.546Z,99412.60
2023-10-10T10:19:18.783Z,99406.20
2023-10-10T10:22:09.368Z,99414.40
2023-10-10T10:25:23.240Z,99414.80
2023-10-10T10:28:11.645Z,99411.60
2023-10-10T10:30:55.135Z,99414.00
2023-10-10T10:33:34.188Z,99412.60
2023-10-10T10:36:16.228Z,99400.80
2023-10-10T10:39:08.467Z,99403.00
2023-10-10T10:41:53.088Z,99395.80
2023-10-10T10:44:47.994Z,99402.80
2023-10-10T10:47:55.942Z,99397.80
2023-10-10T10:50:46.943Z,99397.00
2023-10-10T10:53:35.100Z,99404.40
2023-10-10T10:56:39.971Z,99402.40
2023-10-10T10:59:20.775Z,99396.20
2023-10-10T11:01:56.692Z,99398.40
2023-10-10T11:04:45.289Z,99396.00
2023-10-10T11:07:27.740Z,99392.80
2023-10-10T11:10:09.309Z,99396.00
2023-10-10T11:12:43.273Z,99389.60
2023-10-10T11:15:17.706Z,99394.80
2023-10-10T11:18:09.294Z,99392.40
2023-10-10T11:21:08.188Z,99396.20
2023-10-10T11:23:43.914Z,99400.20
2023-10-10T11:26:19.951Z,99393.00
2023-10-10T11:28:53.259Z,99389.20
2023-10-10T11:31:30.678Z,99388.60
2023-10-10T11:34:22.002Z,99395.80
2023-10-10T11:37:14.771Z,99387.60
2023-10-10T11:39:53.752Z,99383.60
2023-10-10T11:42:35.089Z,99382.60
2023-10-10T11:45:12.324Z,99384.80
2023-10-10T11:47:46.336Z,99378.60
2023-10-10T11:50:23.732Z,99379.20
2023-10-10T11:52:58.542Z,99374.00
2023-10-10T11:55:32.827Z,99378.00
2023-10-10T11:58:08.906Z,99372.80
2023-10-10T12:01:01.015Z,99366.00
2023-10-10T12:03:43.598Z,99362.20
2023-10-10T12:06:20.627Z,99366.00
2023-10-10T12:08:54.605Z,99357.80
2023-10-10T12:11:28.080Z,99357.60
2023-10-10T12:14:01.480Z,99355.40
2023-10-10T12:16:34.621Z,99355.20
2023-10-10T12:19:07.963Z,99358.00
2023-10-10T12:21:41.887Z,99354.60
2023-10-10T12:24:15.162Z,99352.20
2023-10-10T12:26:48.323Z,99358.60
2023-10-10T12:29:43.402Z,99363.80
2023-10-10T12:32:20.765Z,99363.20
2023-10-10T12:34:54.421Z,99364.40
2023-10-10T12:37:27.651Z,99362.00
2023-10-10T12:40:10.038Z,99363.80
2023-10-10T12:42:43.258Z,99366.20
2023-10-10T12:45:18.290Z,99358.40
2023-10-10T12:47:51.469Z,99359.20
2023-10-10T12:50:27.952Z,99357.20
2023-10-10T12:53:08.728Z,99361.60
2023-10-10T12:55:50.111Z,99357.00
2023-10-10T12:58:25.853Z,99350.60
2023-10-10T13:01:00.254Z,99355.00
2023-10-10T13:03:35.246Z,99359.20
2023-10-10T13:06:09.923Z,99353.80
2023-10-10T13:08:48.529Z,99352.60
2023-10-10T13:11:33.726Z,99346.40
2023-10-10T13:14:11.783Z,99351.00
2023-10-10T13:17:14.973Z,99345.00
2023-10-10T13:19:48.198Z,99345.40
2023-10-10T13:22:22.918Z,99344.80
2023-10-10T13:24:56.198Z,99340.80
2023-10-10T13:27:29.419Z,99335.40
2023-10-10T13:30:02.639Z,99333.00
2023-10-10T13:32:36.405Z,99335.20
2023-10-10T13:35:11.454Z,99336.40
2023-10-10T13:37:45.136Z,99330.60
2023-10-10T13:40:24.251Z,99330.20
2023-10-10T13:43:00.055Z,99336.40
2023-10-10T13:45:35.081Z,99335.80
2023-10-10T13:48:14.460Z,99338.00
2023-10-10T13:50:48.786Z,99335.00
2023-10-10T13:53:22.612Z,99332.00
2023-10-10T13:55:55.940Z,99332.40
2023-10-10T13:58:29.320Z,99327.60
2023-10-10T14:01:16.779Z,99334.60
2023-10-10T14:03:51.106Z,99328.20
2023-10-10T14:06:28.211Z,99329.20
2023-10-10T14:09:01.742Z,99325.00
2023-10-10T14:11:34.959Z,99321.40
2023-10-10T14:14:08.478Z,99326.40
2023-10-10T14:16:41.726Z,99326.80
2023-10-10T14:19:15.145Z,99329.60
2023-10-10T14:21:48.905Z,99335.20
2023-10-10T14:24:22.328Z,99344.20
2023-10-10T14:27:00.554Z,99336.60
2023-10-10T14:29:42.701Z,99338.40
2023-10-10T14:32:30.886Z,99341.80
2023-10-10T14:35:10.513Z,99330.60
2023-10-10T14:38:00.467Z,99327.80
2023-10-10T14:40:38.172Z,99336.00
2023-10-10T14:43:12.199Z,99337.00
2023-10-10T14:45:49.890Z,99339.60
2023-10-10T14:48:22.943Z,99336.40
2023-10-10T14:50:56.163Z,99327.60
2023-10-10T14:53:29.370Z,99324.60
2023-10-10T14:56:06.556Z,99321.60
2023-10-10T14:58:39.851Z,99329.00
2023-10-10T15:01:18.653Z,99334.20
2023-10-10T15:03:52.260Z,99341.00
2023-10-10T15:06:30.122Z,99351.40
2023-10-10T15:09:03.344Z,99359.20
2023-10-10T15:11:36.757Z,99349.20
2023-10-10T15:14:11.104Z,99337.80
2023-10-10T15:16:47.723Z,99330.00
2023-10-10T15:19:21.635Z,99333.80
2023-10-10T15:21:57.769Z,99331.40
2023-10-10T15:24:34.430Z,99331.60
2023-10-10T15:27:07.804Z,99335.00
2023-10-10T15:29:43.568Z,99341.40
2023-10-10T15:32:17.565Z,99354.20
2023-10-10T15:34:50.918Z,99358.00
2023-10-10T15:37:27.840Z,99362.80
2023-10-10T15:40:01.025Z,99363.80
2023-10-10T15:42:34.469Z,99359.60
2023-10-10T15:45:10.449Z,99371.20
2023-10-10T15:47:46.580Z,99378.40
2023-10-10T15:50:22.721Z,99375.40
2023-10-10T15:52:56.386Z,99376.00
2023-10-10T15:55:34.282Z,99370.20
2023-10-10T15:58:08.257Z,99369.00
2023-10-10T16:00:41.490Z,99364.60
2023-10-10T16:03:14.760Z,99364.20
2023-10-10T16:05:49.061Z,99374.20
2023-10-10T16:08:23.617Z,99374.80
2023-10-10T16:10:56.876Z,99374.00
2023-10-10T16:13:30.270Z,99378.00
2023-10-10T16:16:06.773Z,99375.40
2023-10-10T16:18:41.672Z,99374.40
2023-10-10T16:21:16.366Z,99380.40
2023-10-10T16:23:49.771Z,99382.20
2023-10-10T16:26:23.088Z,99383.00
2023-10-10T16:28:56.365Z,99390.40
2023-10-10T16:31:32.948Z,99388.40
2023-10-10T16:34:06.381Z,99381.20
2023-10-10T16:36:39.787Z,99381.00
2023-10-10T16:39:15.136Z,99377.40
2023-10-10T16:41:48.889Z,99379.60
2023-10-10T16:44:22.314Z,99385.00
2023-10-10T16:46:55.635Z,99388.80
2023-10-10T16:49:28.864Z,99389.80
2023-10-10T16:52:02.001Z,99390.20
2023-10-10T16:54:35.772Z,99393.60
2023-10-10T16:57:12.330Z,99392.20
2023-10-10T16:59:47.225Z,99389.80
2023-10-10T17:02:20.687Z,99386.20
2023-10-10T17:04:54.528Z,99389.20
2023-10-10T17:07:28.412Z,99387.60
2023-10-10T17:10:06.498Z,99389.60
2023-10-10T17:12:43.277Z,99385.80
2023-10-10T17:15:20.068Z,99388.00
2023-10-10T17:17:53.498Z,99386.00
2023-10-10T17:20:28.617Z,99388.40
2023-10-10T17:23:01.956Z,99383.80
2023-10-10T17:25:38.619Z,99382.80
2023-10-10T17:28:12.466Z,99390.80
2023-10-10T17:30:53.690Z,99383.80
2023-10-10T17:33:27.091Z,99388.20
2023-10-10T17:36:01.978Z,99385.60
2023-10-10T17:38:35.239Z,99386.40
2023-10-10T17:41:10.070Z,99388.60
2023-10-10T17:43:44.040Z,99394.60
2023-10-10T17:46:21.824Z,99391.80
2023-10-10T17:48:56.142Z,99390.60
2023-10-10T17:51:33.362Z,99389.40
2023-10-10T17:54:07.074Z,99395.60
2023-10-10T17:56:40.346Z,99395.20
2023-10-10T17:59:13.815Z,99390.40
2023-10-10T18:01:46.943Z,99388.20
2023-10-10T18:04:22.638Z,99388.40
2023-10-10T18:07:01.213Z,99385.80
2023-10-10T18:09:36.757Z,99387.40
2023-10-10T18:12:13.055Z,99386.80
2023-10-10T18:14:47.123Z,99389.00
2023-10-10T18:17:23.029Z,99394.80
2023-10-10T18:19:57.821Z,99397.20
2023-10-10T18:22:32.951Z,99397.80
2023-10-10T18:25:07.007Z,99394.20
2023-10-10T18:27:42.312Z,99395.20
2023-10-10T18:30:19.939Z,99392.00
2023-10-10T18:32:53.915Z,99395.40
2023-10-10T18:35:29.675Z,99397.60
2023-10-10T18:38:05.353Z,99393.40
2023-10-10T18:40:45.497Z,99392.80
2023-10-10T18:43:22.410Z,99389.20
2023-10-10T18:45:56.135Z,99388.80
2023-10-10T18:48:34.345Z,99390.20
2023-10-10T18:51:14.741Z,99389.80
2023-10-10T18:53:49.239Z,99389.80
2023-10-10T18:56:22.569Z,99396.60
2023-10-10T18:58:55.790Z,99397.60
2023-10-10T19:01:29.026Z,99394.60
2023-10-10T19:04:02.824Z,99394.80
2023-10-10T19:06:39.721Z,99395.20
2023-10-10T19:09:13.823Z,99397.80
2023-10-10T19:11:47.176Z,99399.20
2023-10-10T19:14:20.643Z,99389.20
2023-10-10T19:16:54.472Z,99383.60
2023-10-10T19:19:32.636Z,99389.40
2023-10-10T19:22:06.407Z,99385.80
2023-10-10T19:24:40.889Z,99384.40
2023-10-10T19:27:14.171Z,99386.80
2023-10-10T19:29:47.312Z,99388.40
2023-10-10T19:32:20.569Z,99389.60
2023-10-10T19:34:53.719Z,99385.60
2023-10-10T19:37:26.936Z,99390.60
2023-10-10T19:40:02.606Z,99389.40
2023-10-10T19:42:36.295Z,99387.40
2023-10-10T19:45:25.187Z,99388.40
2023-10-10T19:48:03.944Z,99387.60
2023-10-10T19:50:43.929Z,99388.20
2023-10-10T19:53:20.179Z,99388.20
2023-10-10T19:55:53.295Z,99397.40
2023-10-10T19:58:26.799Z,99394.00
2023-10-10T20:01:02.472Z,99387.20
2023-10-10T20:03:36.546Z,99387.00
2023-10-10T20:06:21.113Z,99381.80
2023-10-10T20:08:55.196Z,99386.20
2023-10-10T20:11:30.326Z,99377.20
2023-10-10T20:14:05.866Z,99384.40
2023-10-10T20:16:39.663Z,99377.80
2023-10-10T20:19:13.532Z,99381.40
2023-10-10T20:24:37.853Z,99386.20
2023-10-10T20:27:11.678Z,99387.40
2023-10-10T20:29:45.578Z,99380.00
2023-10-10T20:32:18.840Z,99380.40
2023-10-10T20:34:52.043Z,99382.40
2023-10-10T20:37:25.431Z,99382.00
2023-10-10T20:39:59.003Z,99379.00
2023-10-10T20:42:32.157Z,99376.80
2023-10-10T20:45:08.428Z,99377.00
2023-10-10T20:47:43.918Z,99371.60
2023-10-10T20:50:21.271Z,99362.00
2023-10-10T20:52:56.325Z,99357.20
2023-10-10T20:55:31.130Z,99361.00
2023-10-10T20:58:05.184Z,99359.40
2023-10-10T21:00:38.977Z,99364.40
2023-10-10T21:03:16.541Z,99359.40
2023-10-10T21:05:50.929Z,99357.60
2023-10-10T21:08:26.950Z,99365.00
2023-10-10T21:11:01.112Z,99358.20
2023-10-10T21:13:34.280Z,99360.00
2023-10-10T21:16:16.152Z,99353.60
2023-10-10T21:18:51.107Z,99350.60
2023-10-10T21:21:24.398Z,99349.60
2023-10-10T21:23:57.609Z,99348.20
2023-10-10T21:26:30.824Z,99346.20
2023-10-10T21:29:05.340Z,99348.60
2023-10-10T21:31:38.501Z,99346.20
2023-10-10T21:34:12.306Z,99345.20
2023-10-10T21:36:46.870Z,99346.40
2023-10-10T21:39:20.087Z,99339.60
2023-10-10T21:41:53.546Z,99335.60
2023-10-10T21:44:28.671Z,99329.00
2023-10-10T21:47:02.036Z,99329.20
2023-10-10T21:49:35.999Z,99324.60
2023-10-10T21:52:10.706Z,99327.00
2023-10-10T21:54:44.255Z,99328.00
2023-10-10T21:57:18.497Z,99329.20
2023-10-10T21:59:51.959Z,99317.60
2023-10-10T22:02:26.221Z,99311.00
2023-10-10T22:05:01.437Z,99308.20
2023-10-10T22:07:35.443Z,99305.20
2023-10-10T22:10:14.744Z,99315.60
2023-10-10T22:12:49.215Z,99309.80
2023-10-10T22:15:23.950Z,99305.80
2023-10-10T22:17:59.590Z,99306.20
2023-10-10T22:20:35.239Z,99307.00
2023-10-10T22:23:10.008Z,99310.60
2023-10-10T22:25:43.183Z,99304.40
2023-10-10T22:28:16.610Z,99307.80
2023-10-10T22:30:50.473Z,99307.20
2023-10-10T22:33:23.767Z,99305.20
2023-10-10T22:35:57.186Z,99304.40
2023-10-10T22:38:30.412Z,99298.40
2023-10-10T22:41:05.631Z,99302.20
2023-10-10T22:43:38.798Z,99299.60
2023-10-10T22:46:12.838Z,99292.60
2023-10-10T22:48:46.147Z,99287.00
2023-10-10T22:51:19.605Z,99282.40
2023-10-10T22:53:52.768Z,99286.60
2023-10-10T22:56:25.848Z,99281.00
2023-10-10T22:59:02.696Z,99284.60
2023-10-10T23:01:35.989Z,99281.60
2023-10-10T23:04:11.674Z,99283.40
2023-10-10T23:06:45.254Z,99284.20
2023-10-10T23:09:18.732Z,99285.80
2023-10-10T23:11:52.023Z,99286.20
2023-10-10T23:14:25.158Z,99281.20
2023-10-10T23:16:58.301Z,99281.00
2023-10-10T23:19:31.459Z,99282.40
2023-10-10T23:22:05.462Z,99279.20
2023-10-10T23:24:40.195Z,99273.40
2023-10-10T23:27:13.397Z,99274.40
2023-10-10T23:29:47.836Z,99270.20
2023-10-10T23:32:21.108Z,99266.80
2023-10-10T23:34:54.376Z,99261.00
2023-10-10T23:37:27.860Z,99266.80
2023-10-10T23:40:01.012Z,99269.80
2023-10-10T23:42:34.116Z,99265.00
2023-10-10T23:45:08.705Z,99257.00
2023-10-10T23:47:42.222Z,99252.00
2023-10-10T23:50:16.164Z,99252.00
2023-10-10T23:52:52.027Z,99248.60
2023-10-10T23:55:30.302Z,99252.60
2023-10-10T23:58:03.459Z,99245.20
